Time;durP1;ratioP1;P1;durP2;ratioP2;P2;SDS_P1;SDS_P2;PMS_P1;PMS_P2;Temp;Humidity;BMP_temperature;BMP_pressure;BME280_temperature;BME280_humidity;BME280_pressure;Samples;Min_cycle;Max_cycle;Signal;HPM_P1;HPM_P2
2023/06/08 00:02:11;;;;;;;21.63;7.15;;;;;;;;;;5037082;28;20060;-63
2023/06/08 00:04:41;;;;;;;19.60;7.70;;;;;;;;;;5072423;28;20045;-64
2023/06/08 00:07:16;;;;;;;15.20;8.05;;;;;;;;;;5049845;28;20049;-64
2023/06/08 00:09:46;;;;;;;16.77;8.70;;;;;;;;;;5049851;28;20064;-64
2023/06/08 00:12:17;;;;;;;21.98;7.65;;;;;;;;;;5033172;28;20059;-64
2023/06/08 00:14:48;;;;;;;19.05;8.32;;;;;;;;;;5050032;28;20048;-64
2023/06/08 00:17:18;;;;;;;19.67;7.35;;;;;;;;;;5058366;28;20080;-63
2023/06/08 00:19:52;;;;;;;17.90;7.22;;;;;;;;;;5069749;28;20558;-64
2023/06/08 00:22:22;;;;;;;18.75;8.15;;;;;;;;;;5022138;28;20159;-63
2023/06/08 00:24:53;;;;;;;19.60;7.35;;;;;;;;;;5020005;28;20496;-65
2023/06/08 00:27:23;;;;;;;20.95;8.32;;;;;;;;;;5069734;28;20178;-63
2023/06/08 00:29:54;;;;;;;14.63;7.68;;;;;;;;;;5049297;28;20508;-64
2023/06/08 00:32:24;;;;;;;18.52;7.95;;;;;;;;;;5049841;28;20061;-63
2023/06/08 00:34:54;;;;;;;18.27;8.10;;;;;;;;;;5049543;28;20057;-63
2023/06/08 00:37:25;;;;;;;17.88;7.43;;;;;;;;;;5029202;28;20049;-63
2023/06/08 00:39:55;;;;;;;21.38;9.05;;;;;;;;;;5029514;28;20054;-63
2023/06/08 00:42:25;;;;;;;21.40;8.40;;;;;;;;;;5028854;28;20169;-63
2023/06/08 00:44:56;;;;;;;19.58;9.13;;;;;;;;;;5029173;28;20057;-65
2023/06/08 00:47:27;;;;;;;18.33;8.40;;;;;;;;;;4964248;28;20413;-64
2023/06/08 00:49:57;;;;;;;18.35;7.90;;;;;;;;;;5025974;28;20555;-63
2023/06/08 00:52:28;;;;;;;17.75;8.85;;;;;;;;;;5020024;28;20517;-64
2023/06/08 00:55:00;;;;;;;17.45;8.43;;;;;;;;;;4969174;28;20057;-64
2023/06/08 00:57:33;;;;;;;19.88;8.73;;;;;;;;;;4986972;28;20076;-65
2023/06/08 01:00:11;;;;;;;22.40;8.55;;;;;;;;;;5006511;28;20512;-65
2023/06/08 01:02:42;;;;;;;19.38;8.70;;;;;;;;;;5008393;28;20544;-63
2023/06/08 01:05:16;;;;;;;20.20;8.23;;;;;;;;;;5008434;28;20057;-64
2023/06/08 01:08:42;;;;;;;17.77;8.35;;;;;;;;;;5026550;28;20049;-64
2023/06/08 01:11:38;;;;;;;20.45;7.93;;;;;;;;;;5003128;28;20050;-64
2023/06/08 01:14:41;;;;;;;22.17;8.65;;;;;;;;;;4983745;28;20073;-64
2023/06/08 01:17:15;;;;;;;19.23;8.80;;;;;;;;;;4963821;28;20055;-63
2023/06/08 01:20:34;;;;;;;20.85;7.82;;;;;;;;;;4918721;29;20047;-65
2023/06/08 01:23:26;;;;;;;21.48;9.40;;;;;;;;;;4915070;29;20095;-63
2023/06/08 01:26:00;;;;;;;17.55;8.13;;;;;;;;;;4884137;29;20061;-63
2023/06/08 01:28:32;;;;;;;23.88;8.23;;;;;;;;;;4877543;29;20072;-64
2023/06/08 01:31:03;;;;;;;24.88;9.60;;;;;;;;;;4883704;29;20072;-64
2023/06/08 01:33:34;;;;;;;19.38;8.15;;;;;;;;;;4902604;29;20052;-63
2023/06/08 01:36:25;;;;;;;20.40;8.93;;;;;;;;;;4893410;29;20059;-64
2023/06/08 01:39:22;;;;;;;18.58;8.00;;;;;;;;;;4856178;29;20073;-63
2023/06/08 01:41:54;;;;;;;16.15;8.23;;;;;;;;;;4842739;29;20057;-63
2023/06/08 01:44:24;;;;;;;;;;;;;;;;;;4804152;29;20050;-63
2023/06/08 01:46:58;;;;;;;19.45;8.95;;;;;;;;;;4820052;29;19925;-63
2023/06/08 01:49:30;;;;;;;20.85;9.30;;;;;;;;;;4819474;29;20415;-64
2023/06/08 01:52:02;;;;;;;20.52;9.32;;;;;;;;;;4819975;29;20058;-63
2023/06/08 01:54:32;;;;;;;;;;;;;;;;;;4850471;29;20578;-63
2023/06/08 01:57:04;;;;;;;19.67;9.20;;;;;;;;;;4855997;29;20347;-63
2023/06/08 01:59:35;;;;;;;25.15;9.40;;;;;;;;;;4867099;29;20057;-64
2023/06/08 02:02:07;;;;;;;20.15;9.77;;;;;;;;;;4857064;29;20058;-64
2023/06/08 02:04:38;;;;;;;22.23;9.05;;;;;;;;;;4874539;29;20069;-64
2023/06/08 02:07:09;;;;;;;26.05;9.40;;;;;;;;;;4893107;29;20544;-64
2023/06/08 02:09:42;;;;;;;24.45;10.63;;;;;;;;;;4892673;29;20067;-64
2023/06/08 02:12:13;;;;;;;21.55;9.48;;;;;;;;;;4915585;29;20063;-64
2023/06/08 02:14:46;;;;;;;19.45;9.27;;;;;;;;;;4881676;29;20060;-64
2023/06/08 02:17:18;;;;;;;22.98;9.63;;;;;;;;;;4926615;29;20067;-64
2023/06/08 02:19:48;;;;;;;22.33;10.30;;;;;;;;;;4915614;29;20063;-64
2023/06/08 02:22:18;;;;;;;21.65;9.75;;;;;;;;;;4892496;29;20409;-65
2023/06/08 02:24:49;;;;;;;19.92;9.70;;;;;;;;;;4878271;29;20065;-63
2023/06/08 02:27:19;;;;;;;24.98;10.20;;;;;;;;;;4878262;29;20079;-62
2023/06/08 02:29:50;;;;;;;21.35;9.35;;;;;;;;;;4893194;29;20056;-62
2023/06/08 02:32:20;;;;;;;22.50;9.55;;;;;;;;;;4878183;29;20068;-62
2023/06/08 02:34:55;;;;;;;18.98;8.82;;;;;;;;;;4897951;29;20061;-63
2023/06/08 02:37:28;;;;;;;21.33;8.63;;;;;;;;;;4873704;29;20060;-64
2023/06/08 02:39:58;;;;;;;19.27;8.70;;;;;;;;;;4942453;28;20064;-62
2023/06/08 02:42:34;;;;;;;25.00;9.70;;;;;;;;;;4915269;29;20056;-62
2023/06/08 02:45:06;;;;;;;21.08;9.77;;;;;;;;;;4922558;29;20052;-62
2023/06/08 02:47:39;;;;;;;20.33;8.40;;;;;;;;;;4892327;29;20053;-62
2023/06/08 02:50:10;;;;;;;27.35;9.90;;;;;;;;;;4861863;29;20502;-63
2023/06/08 02:52:41;;;;;;;25.58;9.43;;;;;;;;;;4915185;29;20056;-62
2023/06/08 02:55:11;;;;;;;19.73;9.38;;;;;;;;;;4930815;29;20424;-62
2023/06/08 02:57:48;;;;;;;28.23;10.88;;;;;;;;;;4884822;29;20057;-64
2023/06/08 03:00:20;;;;;;;25.13;9.73;;;;;;;;;;4872926;29;20557;-62
2023/06/08 03:03:16;;;;;;;22.40;8.90;;;;;;;;;;4877179;29;20060;-64
2023/06/08 03:05:49;;;;;;;22.70;9.43;;;;;;;;;;4858765;29;20053;-62
2023/06/08 03:08:19;;;;;;;19.27;8.98;;;;;;;;;;4880357;29;20125;-62
2023/06/08 03:10:50;;;;;;;23.10;9.90;;;;;;;;;;4846570;29;20049;-62
2023/06/08 03:13:21;;;;;;;21.17;8.77;;;;;;;;;;4896065;29;20053;-62
2023/06/08 03:15:52;;;;;;;31.55;10.52;;;;;;;;;;4880347;29;20061;-64
2023/06/08 03:18:24;;;;;;;20.20;9.45;;;;;;;;;;4895483;29;20681;-63
2023/06/08 03:20:54;;;;;;;18.88;8.45;;;;;;;;;;4900437;29;20056;-63
2023/06/08 03:23:24;;;;;;;21.05;9.18;;;;;;;;;;4850749;29;20049;-64
2023/06/08 03:25:56;;;;;;;27.33;9.75;;;;;;;;;;4877215;29;20387;-63
2023/06/08 03:28:26;;;;;;;21.65;9.80;;;;;;;;;;4876183;29;20088;-64
2023/06/08 03:30:56;;;;;;;22.92;9.95;;;;;;;;;;4873103;29;20056;-64
2023/06/08 03:33:35;;;;;;;22.55;10.23;;;;;;;;;;4855868;29;20104;-64
2023/06/08 03:36:06;;;;;;;26.95;10.48;;;;;;;;;;4882518;29;20082;-64
2023/06/08 03:38:42;;;;;;;18.75;9.77;;;;;;;;;;4858048;29;20098;-66
2023/06/08 03:41:15;;;;;;;22.38;9.13;;;;;;;;;;4858667;29;20060;-64
2023/06/08 03:43:49;;;;;;;20.73;9.18;;;;;;;;;;4857789;29;20085;-63
2023/06/08 03:46:25;;;;;;;18.92;9.30;;;;;;;;;;4839474;29;20058;-65
2023/06/08 03:48:57;;;;;;;23.30;9.82;;;;;;;;;;4806619;29;20053;-65
2023/06/08 03:51:27;;;;;;;21.30;9.93;;;;;;;;;;4796912;29;20063;-64
2023/06/08 03:53:57;;;;;;;21.30;9.18;;;;;;;;;;4784880;29;20047;-63
2023/06/08 03:56:29;;;;;;;22.63;9.48;;;;;;;;;;4827474;29;20061;-65
2023/06/08 03:59:02;;;;;;;34.72;10.57;;;;;;;;;;4851765;29;20065;-63
2023/06/08 04:01:35;;;;;;;16.02;8.55;;;;;;;;;;4857959;29;20061;-63
2023/06/08 04:04:06;;;;;;;23.95;9.10;;;;;;;;;;4826700;29;20076;-63
2023/06/08 04:06:38;;;;;;;24.00;9.85;;;;;;;;;;4843046;29;20072;-64
2023/06/08 04:09:10;;;;;;;21.15;9.10;;;;;;;;;;4885044;29;20142;-65
2023/06/08 04:11:41;;;;;;;21.60;8.88;;;;;;;;;;4926245;29;20048;-64
2023/06/08 04:14:12;;;;;;;22.30;9.38;;;;;;;;;;4863256;29;20088;-64
2023/06/08 04:16:43;;;;;;;19.38;8.77;;;;;;;;;;4894952;29;20060;-63
2023/06/08 04:19:13;;;;;;;18.73;9.18;;;;;;;;;;4894487;29;20056;-63
2023/06/08 04:21:43;;;;;;;17.80;9.02;;;;;;;;;;4910173;29;20053;-63
2023/06/08 04:24:21;;;;;;;19.80;10.32;;;;;;;;;;4872810;29;20091;-63
2023/06/08 04:26:51;;;;;;;21.35;9.20;;;;;;;;;;4905740;29;20060;-63
2023/06/08 04:29:22;;;;;;;20.77;8.63;;;;;;;;;;4861445;29;20064;-64
2023/06/08 04:31:52;;;;;;;26.58;9.00;;;;;;;;;;4856956;29;20529;-63
2023/06/08 04:34:23;;;;;;;16.35;8.15;;;;;;;;;;4842455;29;20070;-63
2023/06/08 04:36:55;;;;;;;19.27;8.48;;;;;;;;;;4802858;29;20054;-63
2023/06/08 04:39:26;;;;;;;17.85;7.93;;;;;;;;;;4796114;29;20112;-64
2023/06/08 04:41:57;;;;;;;18.77;8.43;;;;;;;;;;4838717;29;20058;-64
2023/06/08 04:44:32;;;;;;;16.77;8.70;;;;;;;;;;4823506;29;20058;-64
2023/06/08 04:47:07;;;;;;;23.92;9.15;;;;;;;;;;4807482;29;20063;-66
2023/06/08 04:49:39;;;;;;;19.77;8.85;;;;;;;;;;4773260;29;20055;-64
2023/06/08 04:52:13;;;;;;;21.10;9.00;;;;;;;;;;4828015;29;20080;-63
2023/06/08 04:54:44;;;;;;;29.42;9.93;;;;;;;;;;4773132;29;20070;-64
2023/06/08 04:57:16;;;;;;;20.33;8.88;;;;;;;;;;4810509;29;20058;-64
2023/06/08 04:59:47;;;;;;;;;;;;;;;;;;4865313;29;20064;-63
2023/06/08 05:02:17;;;;;;;16.05;7.30;;;;;;;;;;4875349;29;19925;-63
2023/06/08 05:04:48;;;;;;;21.95;8.07;;;;;;;;;;4849149;29;20073;-63
2023/06/08 05:07:18;;;;;;;21.35;8.50;;;;;;;;;;4867843;29;20065;-63
2023/06/08 05:09:48;;;;;;;17.45;8.68;;;;;;;;;;4897806;29;20059;-63
2023/06/08 05:12:18;;;;;;;17.88;7.50;;;;;;;;;;4920492;29;20629;-63
2023/06/08 05:14:49;;;;;;;17.20;7.63;;;;;;;;;;4865997;29;20382;-65
2023/06/08 05:17:19;;;;;;;18.17;8.30;;;;;;;;;;4912712;29;20500;-64
2023/06/08 05:19:52;;;;;;;18.52;8.32;;;;;;;;;;4889863;29;20060;-63
2023/06/08 05:22:23;;;;;;;16.95;7.97;;;;;;;;;;4919137;29;20590;-64
2023/06/08 05:24:54;;;;;;;20.88;7.53;;;;;;;;;;4961314;28;20058;-63
2023/06/08 05:27:24;;;;;;;20.00;8.18;;;;;;;;;;4938787;28;20503;-64
2023/06/08 05:29:54;;;;;;;20.63;7.63;;;;;;;;;;4970040;28;20058;-63
2023/06/08 05:32:28;;;;;;;21.42;8.32;;;;;;;;;;4970211;28;20055;-63
2023/06/08 05:34:58;;;;;;;18.35;8.30;;;;;;;;;;4969710;28;20051;-63
2023/06/08 05:37:28;;;;;;;17.40;7.90;;;;;;;;;;4963436;28;20054;-64
2023/06/08 05:39:59;;;;;;;18.92;9.68;;;;;;;;;;4989300;28;20061;-63
2023/06/08 05:42:29;;;;;;;15.20;8.25;;;;;;;;;;4973189;28;20054;-63
2023/06/08 05:44:59;;;;;;;15.90;8.13;;;;;;;;;;4950442;29;20058;-64
2023/06/08 05:47:29;;;;;;;21.80;8.38;;;;;;;;;;4980701;28;20096;-63
2023/06/08 05:50:03;;;;;;;17.70;7.40;;;;;;;;;;5019726;28;20049;-64
2023/06/08 05:52:34;;;;;;;16.85;7.97;;;;;;;;;;5002366;28;20057;-65
2023/06/08 05:55:05;;;;;;;19.17;8.18;;;;;;;;;;5002918;28;20060;-63
2023/06/08 05:57:40;;;;;;;19.55;8.75;;;;;;;;;;5003899;28;20100;-66
2023/06/08 06:00:12;;;;;;;18.23;8.32;;;;;;;;;;5003238;28;20409;-63
2023/06/08 06:02:42;;;;;;;16.50;8.30;;;;;;;;;;5035097;28;20493;-63
2023/06/08 06:05:12;;;;;;;15.45;7.72;;;;;;;;;;5034849;28;20038;-64
2023/06/08 06:07:42;;;;;;;22.10;8.80;;;;;;;;;;5002355;28;20065;-63
2023/06/08 06:10:13;;;;;;;17.20;8.18;;;;;;;;;;5002307;28;20061;-64
2023/06/08 06:12:43;;;;;;;15.98;8.32;;;;;;;;;;5002319;28;20517;-64
2023/06/08 06:15:13;;;;;;;17.77;8.32;;;;;;;;;;5035054;28;20042;-63
2023/06/08 06:17:44;;;;;;;16.50;7.55;;;;;;;;;;5035201;28;20062;-64
2023/06/08 06:20:16;;;;;;;18.42;7.97;;;;;;;;;;5035043;28;20054;-63
2023/06/08 06:22:46;;;;;;;20.35;8.65;;;;;;;;;;5041849;28;20068;-63
2023/06/08 06:25:23;;;;;;;15.02;7.63;;;;;;;;;;4998585;28;20050;-63
2023/06/08 06:27:53;;;;;;;18.15;8.05;;;;;;;;;;4998780;28;20057;-63
2023/06/08 06:30:25;;;;;;;17.63;7.47;;;;;;;;;;4982063;28;20402;-64
2023/06/08 06:32:55;;;;;;;16.67;7.75;;;;;;;;;;5015146;28;20731;-63
2023/06/08 06:35:26;;;;;;;18.40;7.47;;;;;;;;;;5015038;28;20042;-63
2023/06/08 06:37:56;;;;;;;22.98;8.77;;;;;;;;;;4998828;28;20510;-63
2023/06/08 06:40:27;;;;;;;17.95;8.27;;;;;;;;;;4982200;28;20057;-65
2023/06/08 06:42:58;;;;;;;17.58;7.88;;;;;;;;;;5014832;28;20068;-63
2023/06/08 06:45:52;;;;;;;19.00;7.50;;;;;;;;;;5014411;28;20422;-64
2023/06/08 06:48:24;;;;;;;18.52;8.00;;;;;;;;;;4975612;28;20047;-64
2023/06/08 06:50:55;;;;;;;19.13;8.43;;;;;;;;;;4975911;28;20074;-63
2023/06/08 06:53:25;;;;;;;17.15;7.60;;;;;;;;;;4956151;28;20548;-63
2023/06/08 06:55:57;;;;;;;19.60;8.25;;;;;;;;;;4907067;29;20052;-64
2023/06/08 06:58:27;;;;;;;15.40;7.30;;;;;;;;;;4921381;29;20067;-63
2023/06/08 07:00:57;;;;;;;18.40;8.30;;;;;;;;;;4921412;29;20072;-64
2023/06/08 07:03:29;;;;;;;15.82;8.27;;;;;;;;;;4947237;29;20059;-64
2023/06/08 07:05:59;;;;;;;16.70;7.97;;;;;;;;;;4953288;29;20055;-63
2023/06/08 07:08:29;;;;;;;21.05;8.07;;;;;;;;;;4934068;29;20585;-63
2023/06/08 07:11:01;;;;;;;16.98;7.55;;;;;;;;;;4933931;29;20516;-63
2023/06/08 07:13:31;;;;;;;15.60;7.60;;;;;;;;;;4934041;29;20059;-64
2023/06/08 07:16:03;;;;;;;19.40;8.40;;;;;;;;;;4934222;29;20048;-63
2023/06/08 07:18:33;;;;;;;15.90;8.60;;;;;;;;;;4933678;29;20054;-64
2023/06/08 07:21:04;;;;;;;16.60;8.57;;;;;;;;;;4934076;29;20083;-63
2023/06/08 07:23:34;;;;;;;17.60;8.48;;;;;;;;;;4934281;29;20063;-62
2023/06/08 07:26:26;;;;;;;16.15;8.23;;;;;;;;;;4921150;29;20056;-63
2023/06/08 07:29:00;;;;;;;16.02;7.50;;;;;;;;;;4915065;29;20063;-64
2023/06/08 07:31:31;;;;;;;16.70;7.65;;;;;;;;;;4953280;28;20063;-64
2023/06/08 07:34:02;;;;;;;15.85;7.63;;;;;;;;;;4968830;28;20061;-64
2023/06/08 07:36:32;;;;;;;16.95;7.45;;;;;;;;;;4991546;28;20151;-64
2023/06/08 07:39:03;;;;;;;16.10;7.15;;;;;;;;;;4990980;28;20395;-63
2023/06/08 07:41:34;;;;;;;;;;;;;;;;;;4975717;28;20070;-63
2023/06/08 07:44:04;;;;;;;16.40;7.05;;;;;;;;;;4975456;28;19922;-62
2023/06/08 07:46:35;;;;;;;16.20;7.47;;;;;;;;;;4987864;28;20053;-64
2023/06/08 07:49:06;;;;;;;16.70;7.43;;;;;;;;;;4994689;28;20057;-63
2023/06/08 07:51:37;;;;;;;15.35;7.32;;;;;;;;;;5011007;28;20053;-64
2023/06/08 07:54:07;;;;;;;14.43;7.18;;;;;;;;;;5011195;28;20053;-63
2023/06/08 07:56:39;;;;;;;16.40;7.68;;;;;;;;;;5053190;28;20056;-63
2023/06/08 07:59:09;;;;;;;15.35;7.18;;;;;;;;;;5072951;28;20915;-63
2023/06/08 08:01:41;;;;;;;15.95;7.75;;;;;;;;;;5054427;28;20056;-63
2023/06/08 08:04:11;;;;;;;19.45;7.53;;;;;;;;;;5055806;28;20488;-63
2023/06/08 08:06:41;;;;;;;17.85;7.15;;;;;;;;;;5020795;28;20075;-63
2023/06/08 08:09:11;;;;;;;15.90;7.60;;;;;;;;;;5037294;28;20048;-65
2023/06/08 08:11:45;;;;;;;16.20;7.60;;;;;;;;;;5056039;28;20083;-64
2023/06/08 08:14:15;;;;;;;18.00;7.47;;;;;;;;;;5053537;28;20522;-63
2023/06/08 08:16:45;;;;;;;16.27;6.90;;;;;;;;;;5054087;28;20052;-63
2023/06/08 08:19:16;;;;;;;14.63;7.28;;;;;;;;;;5053535;28;20059;-63
2023/06/08 08:21:46;;;;;;;12.93;6.53;;;;;;;;;;5072439;28;20077;-63
2023/06/08 08:24:17;;;;;;;16.50;7.15;;;;;;;;;;5055224;28;20044;-63
2023/06/08 08:26:47;;;;;;;12.13;6.53;;;;;;;;;;5072272;28;20036;-63
2023/06/08 08:29:17;;;;;;;14.43;6.60;;;;;;;;;;5037198;28;20103;-63
2023/06/08 08:31:47;;;;;;;18.50;7.68;;;;;;;;;;5072556;28;20547;-63
2023/06/08 08:34:18;;;;;;;19.40;8.05;;;;;;;;;;5037232;28;20067;-65
2023/06/08 08:36:48;;;;;;;15.70;7.38;;;;;;;;;;5072110;28;20048;-65
2023/06/08 08:39:18;;;;;;;18.02;8.38;;;;;;;;;;5053109;28;20068;-64
2023/06/08 08:41:56;;;;;;;17.90;7.63;;;;;;;;;;5072062;28;20484;-62
2023/06/08 08:44:26;;;;;;;18.30;7.22;;;;;;;;;;5021089;28;20049;-64
2023/06/08 08:47:02;;;;;;;16.80;7.60;;;;;;;;;;5071831;28;20073;-63
2023/06/08 08:49:36;;;;;;;16.00;7.57;;;;;;;;;;5033318;28;20049;-63
2023/06/08 08:52:11;;;;;;;21.23;7.65;;;;;;;;;;5049260;28;20060;-64
2023/06/08 08:54:42;;;;;;;17.80;7.93;;;;;;;;;;5033302;28;20061;-63
2023/06/08 08:57:12;;;;;;;14.15;7.15;;;;;;;;;;5001692;28;20053;-63
2023/06/08 08:59:45;;;;;;;16.52;7.18;;;;;;;;;;5032903;28;20060;-63
2023/06/08 09:02:15;;;;;;;18.00;7.13;;;;;;;;;;5045134;28;20065;-64
2023/06/08 09:04:46;;;;;;;16.27;7.70;;;;;;;;;;5066210;28;20081;-63
2023/06/08 09:07:21;;;;;;;18.52;7.47;;;;;;;;;;5018841;28;20053;-63
2023/06/08 09:10:18;;;;;;;15.85;7.00;;;;;;;;;;5068942;28;20064;-63
2023/06/08 09:12:52;;;;;;;16.40;7.97;;;;;;;;;;5019613;28;20052;-63
2023/06/08 09:15:28;;;;;;;;;;;;;;;;;;5053311;28;20049;-63
2023/06/08 09:18:14;;;;;;;14.02;6.05;;;;;;;;;;5035968;28;19921;-65
2023/06/08 09:20:45;;;;;;;17.02;6.70;;;;;;;;;;5006363;28;20108;-63
2023/06/08 09:23:21;;;;;;;16.83;6.80;;;;;;;;;;5035363;28;20416;-63
2023/06/08 09:25:54;;;;;;;17.13;7.15;;;;;;;;;;5052051;28;20059;-64
2023/06/08 09:28:26;;;;;;;14.00;7.47;;;;;;;;;;5038523;28;20066;-63
2023/06/08 09:30:58;;;;;;;15.35;7.15;;;;;;;;;;5033724;28;20040;-64
2023/06/08 09:33:33;;;;;;;16.95;6.07;;;;;;;;;;5055791;28;20052;-65
2023/06/08 09:36:04;;;;;;;13.07;6.40;;;;;;;;;;5091366;28;20039;-64
2023/06/08 09:38:35;;;;;;;14.85;6.57;;;;;;;;;;5056017;28;20056;-64
2023/06/08 09:41:21;;;;;;;12.15;5.95;;;;;;;;;;5091198;28;20036;-63
2023/06/08 09:43:52;;;;;;;12.68;6.97;;;;;;;;;;5055674;28;20064;-63
2023/06/08 09:46:45;;;;;;;19.27;6.53;;;;;;;;;;5090991;28;20062;-63
2023/06/08 09:49:18;;;;;;;13.00;6.43;;;;;;;;;;5068721;28;20098;-64
2023/06/08 09:51:53;;;;;;;12.43;6.28;;;;;;;;;;5056347;28;20071;-64
2023/06/08 09:54:33;;;;;;;18.02;8.35;;;;;;;;;;5090900;28;20701;-63
2023/06/08 09:57:05;;;;;;;14.77;7.53;;;;;;;;;;5056242;28;20052;-63
2023/06/08 09:59:45;;;;;;;20.13;7.63;;;;;;;;;;5035224;28;20495;-63
2023/06/08 10:02:35;;;;;;;16.75;7.55;;;;;;;;;;5068693;28;20543;-64
2023/06/08 10:05:12;;;;;;;20.08;7.35;;;;;;;;;;5068093;28;20056;-64
2023/06/08 10:07:47;;;;;;;15.80;7.15;;;;;;;;;;5067880;28;20052;-64
2023/06/08 10:10:22;;;;;;;18.70;8.02;;;;;;;;;;5068143;28;20396;-64
2023/06/08 10:12:53;;;;;;;17.38;8.50;;;;;;;;;;4991664;28;20058;-63
2023/06/08 10:15:23;;;;;;;21.25;7.93;;;;;;;;;;5025988;28;20447;-63
2023/06/08 10:17:58;;;;;;;18.58;7.78;;;;;;;;;;5027958;28;20076;-63
2023/06/08 10:20:30;;;;;;;15.90;7.03;;;;;;;;;;5030858;28;20061;-62
2023/06/08 10:23:02;;;;;;;15.80;7.63;;;;;;;;;;4961087;28;20045;-62
2023/06/08 10:25:33;;;;;;;17.25;7.65;;;;;;;;;;5028383;28;20049;-62
2023/06/08 10:28:06;;;;;;;17.15;8.18;;;;;;;;;;4965066;28;20051;-62
2023/06/08 10:30:44;;;;;;;19.98;7.72;;;;;;;;;;4941064;28;20059;-63
2023/06/08 10:33:20;;;;;;;17.10;7.47;;;;;;;;;;4960093;28;20557;-63
2023/06/08 10:36:09;;;;;;;16.50;8.63;;;;;;;;;;4946157;28;20056;-62
2023/06/08 10:39:00;;;;;;;19.80;7.82;;;;;;;;;;4994678;28;20161;-63
2023/06/08 10:41:42;;;;;;;19.08;8.10;;;;;;;;;;4992193;28;20061;-62
2023/06/08 10:44:24;;;;;;;17.63;7.88;;;;;;;;;;4975799;28;20049;-62
2023/06/08 10:47:03;;;;;;;25.30;8.80;;;;;;;;;;4992061;28;20055;-61
2023/06/08 10:49:39;;;;;;;17.95;7.22;;;;;;;;;;4962433;28;20054;-62
2023/06/08 10:52:10;;;;;;;22.67;8.38;;;;;;;;;;5012069;28;20057;-62
2023/06/08 10:54:58;;;;;;;19.10;8.75;;;;;;;;;;5011576;28;20399;-62
2023/06/08 10:57:45;;;;;;;17.83;8.15;;;;;;;;;;5011789;28;20061;-62
2023/06/08 11:00:28;;;;;;;19.55;8.45;;;;;;;;;;4952920;29;20051;-62
2023/06/08 11:03:01;;;;;;;18.25;8.30;;;;;;;;;;4936960;29;20114;-62
2023/06/08 11:05:32;;;;;;;20.95;9.25;;;;;;;;;;4970021;28;20077;-63
2023/06/08 11:08:06;;;;;;;18.52;8.80;;;;;;;;;;4991700;28;20046;-61
2023/06/08 11:10:39;;;;;;;21.40;8.27;;;;;;;;;;4943822;28;20054;-61
2023/06/08 11:13:16;;;;;;;20.83;8.98;;;;;;;;;;4943452;28;20061;-61
2023/06/08 11:15:47;;;;;;;23.83;9.77;;;;;;;;;;4960325;28;20122;-62
2023/06/08 11:18:20;;;;;;;22.45;10.13;;;;;;;;;;4997903;28;20105;-62
2023/06/08 11:20:50;;;;;;;;;;;;;;;;;;5001334;28;20417;-61
2023/06/08 11:23:20;;;;;;;24.10;10.43;;;;;;;;;;4995181;28;19928;-63
2023/06/08 11:25:51;;;;;;;26.00;10.18;;;;;;;;;;5011291;28;20068;-62
2023/06/08 11:28:23;;;;;;;35.38;12.55;;;;;;;;;;5002756;28;20061;-63
2023/06/08 11:30:53;;;;;;;29.77;11.27;;;;;;;;;;5010775;28;20045;-62
2023/06/08 11:33:25;;;;;;;27.95;11.38;;;;;;;;;;5020567;28;20145;-63
2023/06/08 11:35:55;;;;;;;25.85;10.27;;;;;;;;;;5018255;28;20445;-63
2023/06/08 11:38:25;;;;;;;22.05;9.80;;;;;;;;;;5042945;28;20056;-62
2023/06/08 11:40:59;;;;;;;24.00;10.27;;;;;;;;;;5055560;28;20048;-65
2023/06/08 11:43:32;;;;;;;21.98;9.65;;;;;;;;;;5021844;28;20056;-63
2023/06/08 11:46:02;;;;;;;18.80;9.55;;;;;;;;;;5073200;28;20036;-64
2023/06/08 11:48:32;;;;;;;21.90;9.48;;;;;;;;;;5072282;28;20048;-63
2023/06/08 11:51:03;;;;;;;18.83;9.40;;;;;;;;;;5072782;28;20047;-64
2023/06/08 11:53:33;;;;;;;25.90;13.80;;;;;;;;;;5072652;28;20041;-63
2023/06/08 11:56:05;;;;;;;22.27;12.57;;;;;;;;;;5074614;28;20048;-63
2023/06/08 11:58:37;;;;;;;22.88;10.05;;;;;;;;;;5021236;28;20071;-63
2023/06/08 12:01:12;;;;;;;20.27;10.30;;;;;;;;;;5037829;28;20063;-63
2023/06/08 12:03:49;;;;;;;24.23;12.43;;;;;;;;;;5010267;28;20434;-63
2023/06/08 12:06:26;;;;;;;29.42;12.55;;;;;;;;;;4977842;28;20481;-64
2023/06/08 12:08:56;;;;;;;26.08;11.27;;;;;;;;;;5010302;28;20065;-64
2023/06/08 12:11:26;;;;;;;25.60;13.43;;;;;;;;;;5010711;28;20537;-64
2023/06/08 12:13:58;;;;;;;;;;;;;;;;;;5010479;28;20057;-64
2023/06/08 12:16:42;;;;;;;30.58;13.18;;;;;;;;;;5010298;28;19956;-63
2023/06/08 12:19:13;;;;;;;24.65;13.63;;;;;;;;;;5013344;28;20065;-64
2023/06/08 12:21:43;;;;;;;24.98;13.70;;;;;;;;;;5020866;28;20413;-63
2023/06/08 12:24:14;;;;;;;22.38;12.90;;;;;;;;;;4989568;28;20061;-63
2023/06/08 12:26:44;;;;;;;21.10;10.93;;;;;;;;;;4974352;28;20054;-63
2023/06/08 12:29:15;;;;;;;21.77;11.77;;;;;;;;;;4990207;28;20058;-64
2023/06/08 12:31:45;;;;;;;39.60;18.23;;;;;;;;;;4959241;28;20062;-64
2023/06/08 12:34:17;;;;;;;24.83;12.43;;;;;;;;;;4967829;28;20664;-64
2023/06/08 12:36:49;;;;;;;21.35;12.25;;;;;;;;;;5029485;28;20061;-64
2023/06/08 12:39:19;;;;;;;22.88;12.82;;;;;;;;;;4981272;28;20049;-63
2023/06/08 12:41:50;;;;;;;40.50;22.05;;;;;;;;;;4980890;28;20056;-63
2023/06/08 12:44:20;;;;;;;18.90;10.60;;;;;;;;;;5032152;28;20068;-64
2023/06/08 12:46:51;;;;;;;16.88;9.35;;;;;;;;;;5048820;28;20516;-64
2023/06/08 12:49:22;;;;;;;17.25;10.18;;;;;;;;;;4994687;28;20456;-64
2023/06/08 12:51:53;;;;;;;21.67;9.63;;;;;;;;;;5029459;28;20509;-63
2023/06/08 12:54:23;;;;;;;18.92;11.00;;;;;;;;;;5029118;28;20045;-63
2023/06/08 12:56:54;;;;;;;25.48;12.00;;;;;;;;;;5029451;28;20056;-64
2023/06/08 12:59:24;;;;;;;24.77;13.65;;;;;;;;;;5015867;28;20052;-64
2023/06/08 13:01:54;;;;;;;35.72;19.73;;;;;;;;;;5013376;28;20156;-64
2023/06/08 13:04:25;;;;;;;29.02;15.45;;;;;;;;;;5049110;28;20068;-64
2023/06/08 13:06:58;;;;;;;23.20;12.55;;;;;;;;;;5016935;28;20048;-64
2023/06/08 13:09:29;;;;;;;22.17;12.57;;;;;;;;;;5029364;28;20524;-64
2023/06/08 13:12:00;;;;;;;24.02;11.43;;;;;;;;;;5029147;28;20045;-64
2023/06/08 13:14:33;;;;;;;21.85;11.27;;;;;;;;;;4996994;28;20045;-64
2023/06/08 13:17:03;;;;;;;20.98;11.73;;;;;;;;;;4996590;28;20057;-64
2023/06/08 13:19:34;;;;;;;17.27;10.57;;;;;;;;;;5029936;28;20377;-63
2023/06/08 13:22:05;;;;;;;24.58;14.60;;;;;;;;;;5037439;28;20056;-62
2023/06/08 13:24:35;;;;;;;17.48;10.40;;;;;;;;;;5038899;28;20048;-63
2023/06/08 13:27:07;;;;;;;17.65;10.13;;;;;;;;;;5038888;28;20091;-62
2023/06/08 13:29:40;;;;;;;22.38;10.13;;;;;;;;;;5007385;28;20042;-63
2023/06/08 13:32:11;;;;;;;17.13;8.85;;;;;;;;;;5026068;28;20041;-63
2023/06/08 13:34:42;;;;;;;21.38;10.00;;;;;;;;;;5081626;28;20403;-64
2023/06/08 13:37:13;;;;;;;17.35;9.35;;;;;;;;;;5090806;28;20047;-65
2023/06/08 13:39:46;;;;;;;19.48;10.15;;;;;;;;;;5091567;28;20369;-62
2023/06/08 13:42:16;;;;;;;17.40;9.05;;;;;;;;;;5091211;28;20054;-62
2023/06/08 13:44:50;;;;;;;14.30;8.05;;;;;;;;;;5090446;28;20048;-62
2023/06/08 13:47:21;;;;;;;16.00;8.48;;;;;;;;;;5090479;28;20044;-64
2023/06/08 13:49:52;;;;;;;15.40;8.23;;;;;;;;;;5090398;28;20055;-62
2023/06/08 13:52:24;;;;;;;13.73;7.45;;;;;;;;;;5090630;28;20046;-62
2023/06/08 13:54:54;;;;;;;15.05;5.95;;;;;;;;;;5055886;28;20055;-63
2023/06/08 13:57:24;;;;;;;10.60;6.38;;;;;;;;;;5047780;28;20048;-62
2023/06/08 13:59:55;;;;;;;9.70;5.30;;;;;;;;;;5014984;28;20053;-62
2023/06/08 14:02:27;;;;;;;15.60;6.90;;;;;;;;;;5016060;28;20552;-63
2023/06/08 14:04:59;;;;;;;8.98;5.07;;;;;;;;;;5031007;28;20076;-63
2023/06/08 14:07:29;;;;;;;;;;;;;;;;;;5014478;28;20083;-64
2023/06/08 14:10:00;;;;;;;12.25;5.50;;;;;;;;;;5014447;28;19927;-62
2023/06/08 14:12:31;;;;;;;14.68;5.57;;;;;;;;;;5050350;28;20092;-62
2023/06/08 14:15:01;;;;;;;15.57;6.20;;;;;;;;;;5051217;28;20048;-63
2023/06/08 14:17:32;;;;;;;11.40;4.55;;;;;;;;;;5018733;28;20057;-62
2023/06/08 14:20:02;;;;;;;13.18;6.88;;;;;;;;;;5045253;28;20056;-63
2023/06/08 14:22:33;;;;;;;10.27;6.00;;;;;;;;;;5037903;28;20567;-63
2023/06/08 14:25:04;;;;;;;8.18;3.97;;;;;;;;;;5036851;28;20052;-62
2023/06/08 14:27:34;;;;;;;11.68;6.30;;;;;;;;;;5031119;28;20057;-63
2023/06/08 14:30:05;;;;;;;10.23;5.28;;;;;;;;;;4982469;28;20076;-62
2023/06/08 14:32:36;;;;;;;9.23;4.78;;;;;;;;;;5015412;28;20060;-63
2023/06/08 14:35:07;;;;;;;7.88;4.10;;;;;;;;;;5065316;28;20064;-63
2023/06/08 14:37:38;;;;;;;9.25;3.28;;;;;;;;;;5041819;28;20079;-63
2023/06/08 14:40:08;;;;;;;7.03;3.28;;;;;;;;;;5090444;28;20063;-64
2023/06/08 14:42:39;;;;;;;8.70;3.92;;;;;;;;;;5094082;28;20044;-64
2023/06/08 14:45:11;;;;;;;6.97;3.50;;;;;;;;;;5048855;28;20044;-64
2023/06/08 14:47:41;;;;;;;6.32;2.97;;;;;;;;;;5031111;28;20546;-64
2023/06/08 14:50:15;;;;;;;6.15;2.78;;;;;;;;;;5064314;28;20056;-64
2023/06/08 14:52:45;;;;;;;8.68;3.17;;;;;;;;;;5047878;28;20060;-64
2023/06/08 14:55:17;;;;;;;11.77;3.30;;;;;;;;;;5050196;28;20052;-64
2023/06/08 14:57:48;;;;;;;6.70;2.85;;;;;;;;;;5078727;28;20041;-65
2023/06/08 15:00:19;;;;;;;7.00;2.88;;;;;;;;;;5073693;28;20053;-65
2023/06/08 15:02:49;;;;;;;8.57;3.10;;;;;;;;;;5054291;28;20056;-64
2023/06/08 15:05:20;;;;;;;7.40;3.67;;;;;;;;;;5021666;28;20060;-65